ENRA/MQN METAR and TAF weather

Enter ICAO airport designator
Station Type Date Time Source
ENRA METAR 2020/02/26 10:20 UTC NOAA

ENRA 261020Z VRB01KT CAVOK M12/M15 Q0999


Station Type Date Time Source
ENRA Decoded METAR 2020/02/26 10:20 UTC NOAA

Mo I Rana / Rossvoll, Norway (ENRA) 66-22N 014-18E 70M
Feb 26, 2020 - 05:20 AM EST / 2020.02.26 1020 UTC
Wind: Variable at 1 MPH (1 KT):0
Visibility: greater than 7 mile(s):0
Temperature: 10 F (-12 C)
Dew Point: 5 F (-15 C)
Relative Humidity: 78%
Pressure (altimeter): 29.50 in. Hg (0999 hPa)
ob: ENRA 261020Z VRB01KT CAVOK M12/M15 Q0999
cycle: 10

Station Type Date Time Source
ENRA TAF UTC NOAA

Error!

Example: see airport list